createdAt,value
2018-12-18T00:01:52.585Z,15.43
2018-12-18T00:04:20.372Z,18.35
2018-12-18T00:06:48.258Z,22.00
2018-12-18T00:09:16.176Z,15.85
2018-12-18T00:11:44.343Z,16.90
2018-12-18T00:14:12.123Z,17.32
2018-12-18T00:16:39.875Z,16.57
2018-12-18T00:19:08.319Z,20.68
2018-12-18T00:21:36.089Z,17.17
2018-12-18T00:24:04.113Z,10.72
2018-12-18T00:26:32.322Z,13.88
2018-12-18T00:29:00.047Z,12.50
2018-12-18T00:31:27.867Z,12.45
2018-12-18T00:33:55.600Z,9.80
2018-12-18T00:36:23.318Z,10.70
2018-12-18T00:38:51.156Z,11.53
2018-12-18T00:41:18.889Z,10.30
2018-12-18T00:43:46.918Z,7.80
2018-12-18T00:46:14.812Z,10.63
2018-12-18T00:48:42.550Z,9.33
2018-12-18T00:51:10.284Z,9.60
2018-12-18T00:53:38.002Z,10.15
2018-12-18T00:56:05.770Z,9.05
2018-12-18T00:58:34.140Z,11.33
2018-12-18T01:01:01.927Z,8.43
2018-12-18T01:03:29.667Z,7.28
2018-12-18T01:05:57.515Z,10.38
2018-12-18T01:08:25.350Z,7.50
2018-12-18T01:10:53.770Z,8.05
2018-12-18T01:13:21.508Z,7.17
2018-12-18T01:15:49.612Z,6.55
2018-12-18T01:18:17.399Z,4.97
2018-12-18T01:20:45.146Z,5.55
2018-12-18T01:23:12.888Z,5.90
2018-12-18T01:25:40.753Z,6.03
2018-12-18T01:28:08.485Z,5.28
2018-12-18T01:30:36.198Z,5.70
2018-12-18T01:33:03.996Z,4.15
2018-12-18T01:35:31.834Z,5.05
2018-12-18T01:37:59.799Z,6.97
2018-12-18T01:40:29.198Z,7.13
2018-12-18T01:42:56.917Z,6.63
2018-12-18T01:45:24.681Z,6.13
2018-12-18T01:47:52.695Z,5.60
2018-12-18T01:50:20.404Z,4.33
2018-12-18T01:52:48.463Z,8.90
2018-12-18T01:55:16.540Z,6.70
2018-12-18T01:57:44.325Z,7.93
2018-12-18T02:00:12.270Z,5.20
2018-12-18T02:02:40.090Z,5.75
2018-12-18T02:05:07.871Z,8.27
2018-12-18T02:07:35.769Z,3.97
2018-12-18T02:10:04.276Z,5.80
2018-12-18T02:12:32.278Z,9.15
2018-12-18T02:14:59.997Z,8.13
2018-12-18T02:17:27.804Z,7.47
2018-12-18T02:19:55.880Z,11.47
2018-12-18T02:22:23.641Z,10.17
2018-12-18T02:24:51.444Z,5.83
2018-12-18T02:27:19.266Z,7.17
2018-12-18T02:29:47.033Z,7.03
2018-12-18T02:32:14.784Z,6.03
2018-12-18T02:34:42.560Z,5.73
2018-12-18T02:37:10.512Z,4.83
2018-12-18T02:39:38.340Z,4.73
2018-12-18T02:42:06.132Z,8.30
2018-12-18T02:44:33.871Z,4.90
2018-12-18T02:47:01.598Z,4.40
2018-12-18T02:49:29.424Z,6.43
2018-12-18T02:51:57.466Z,5.13
2018-12-18T02:54:25.208Z,7.40
2018-12-18T02:56:52.947Z,8.83
2018-12-18T02:59:20.811Z,4.80
2018-12-18T03:01:50.620Z,4.20
2018-12-18T03:04:21.716Z,7.23
2018-12-18T03:06:48.477Z,4.97
2018-12-18T03:09:16.223Z,8.07
2018-12-18T03:11:44.244Z,4.77
2018-12-18T03:14:12.306Z,6.37
2018-12-18T03:16:40.043Z,5.77
2018-12-18T03:19:07.768Z,6.23
2018-12-18T03:21:35.890Z,8.63
2018-12-18T03:24:03.649Z,6.87
2018-12-18T03:26:31.430Z,6.17
2018-12-18T03:29:00.764Z,10.50
2018-12-18T03:31:29.669Z,6.77
2018-12-18T03:33:57.449Z,5.53
2018-12-18T03:36:25.194Z,5.93
2018-12-18T03:38:53.005Z,9.33
2018-12-18T03:41:21.399Z,8.20
2018-12-18T03:43:49.287Z,9.17
2018-12-18T03:46:17.706Z,9.83
2018-12-18T03:48:45.733Z,12.57
2018-12-18T03:51:13.497Z,6.27
2018-12-18T03:53:41.233Z,9.20
2018-12-18T03:56:09.010Z,7.83
2018-12-18T03:58:37.639Z,8.70
2018-12-18T04:01:05.492Z,7.90
2018-12-18T04:03:33.208Z,12.40
2018-12-18T04:06:00.958Z,8.17
2018-12-18T04:08:28.677Z,5.92
2018-12-18T04:10:56.508Z,6.03
2018-12-18T04:13:24.251Z,8.93
2018-12-18T04:15:52.030Z,7.65
2018-12-18T04:18:19.822Z,7.10
2018-12-18T04:20:47.575Z,5.22
2018-12-18T04:23:15.325Z,7.42
2018-12-18T04:25:43.048Z,7.97
2018-12-18T04:28:11.075Z,8.28
2018-12-18T04:30:38.854Z,5.87
2018-12-18T04:33:06.585Z,7.75
2018-12-18T04:35:34.298Z,11.78
2018-12-18T04:38:02.093Z,9.03
2018-12-18T04:40:29.857Z,5.67
2018-12-18T04:42:57.610Z,10.50
2018-12-18T04:45:25.360Z,8.35
2018-12-18T04:47:53.082Z,7.70
2018-12-18T04:50:20.887Z,8.85
2018-12-18T04:52:48.795Z,7.60
2018-12-18T04:55:16.545Z,8.20
2018-12-18T04:57:44.291Z,6.53
2018-12-18T05:00:12.080Z,8.40
2018-12-18T05:02:39.857Z,7.58
2018-12-18T05:05:07.591Z,7.53
2018-12-18T05:07:35.297Z,8.55
2018-12-18T05:10:03.872Z,6.65
2018-12-18T05:12:31.701Z,11.28
2018-12-18T05:14:59.621Z,11.95
2018-12-18T05:17:27.399Z,5.12
2018-12-18T05:19:55.189Z,12.40
2018-12-18T05:22:23.264Z,10.95
2018-12-18T05:24:51.015Z,9.68
2018-12-18T05:27:18.770Z,9.33
2018-12-18T05:29:46.806Z,10.13
2018-12-18T05:32:14.568Z,8.63
2018-12-18T05:34:42.318Z,8.18
2018-12-18T05:37:10.359Z,7.92
2018-12-18T05:39:39.326Z,11.27
2018-12-18T05:42:07.209Z,16.67
2018-12-18T05:44:34.927Z,7.25
2018-12-18T05:47:02.848Z,9.35
2018-12-18T05:49:30.882Z,6.78
2018-12-18T05:51:59.555Z,11.08
2018-12-18T05:54:27.948Z,13.45
2018-12-18T05:56:55.751Z,11.53
2018-12-18T05:59:24.000Z,13.53
2018-12-18T06:01:51.750Z,8.93
2018-12-18T06:04:19.692Z,8.10
2018-12-18T06:06:47.932Z,17.37
2018-12-18T06:09:16.406Z,14.75
2018-12-18T06:11:44.621Z,14.03
2018-12-18T06:14:12.749Z,10.23
2018-12-18T06:16:40.487Z,9.80
2018-12-18T06:19:08.248Z,11.12
2018-12-18T06:21:36.653Z,10.38
2018-12-18T06:24:05.554Z,10.30
2018-12-18T06:26:34.979Z,10.20
2018-12-18T06:29:02.856Z,14.07
2018-12-18T06:31:34.734Z,9.63
2018-12-18T06:34:03.534Z,8.45
2018-12-18T06:36:31.414Z,10.48
2018-12-18T06:38:59.213Z,9.40
2018-12-18T06:41:27.855Z,10.32
2018-12-18T06:43:55.666Z,7.42
2018-12-18T06:46:23.422Z,11.03
2018-12-18T06:48:51.710Z,10.40
2018-12-18T06:51:19.720Z,11.38
2018-12-18T06:53:48.056Z,11.20
2018-12-18T06:56:15.913Z,10.00
2018-12-18T06:58:43.741Z,11.50
2018-12-18T07:01:12.701Z,9.55
2018-12-18T07:03:40.487Z,12.45
2018-12-18T07:06:08.815Z,8.40
2018-12-18T07:08:36.697Z,10.63
2018-12-18T07:11:06.016Z,11.05
2018-12-18T07:13:34.176Z,11.45
2018-12-18T07:16:02.537Z,10.98
2018-12-18T07:18:31.943Z,11.57
2018-12-18T07:20:59.686Z,14.35
2018-12-18T07:23:27.574Z,11.60
2018-12-18T07:25:55.567Z,12.60
2018-12-18T07:28:23.430Z,10.40
2018-12-18T07:30:54.641Z,16.57
2018-12-18T07:33:24.529Z,13.50
2018-12-18T07:35:52.323Z,13.43
2018-12-18T07:38:20.067Z,13.13
2018-12-18T07:40:47.901Z,11.35
2018-12-18T07:43:18.197Z,10.80
2018-12-18T07:45:47.299Z,9.07
2018-12-18T07:48:15.143Z,12.20
2018-12-18T07:50:44.577Z,11.70
2018-12-18T07:53:13.213Z,11.73
2018-12-18T07:55:41.328Z,8.30
2018-12-18T07:58:09.236Z,12.53
2018-12-18T08:00:45.262Z,14.00
2018-12-18T08:03:15.195Z,13.70
2018-12-18T08:05:43.820Z,9.30
2018-12-18T08:08:11.570Z,15.20
2018-12-18T08:10:40.864Z,13.73
2018-12-18T08:13:09.243Z,12.57
2018-12-18T08:15:37.806Z,14.75
2018-12-18T08:18:05.615Z,10.67
2018-12-18T08:20:34.006Z,10.00
2018-12-18T08:23:02.231Z,8.10
2018-12-18T08:25:30.072Z,5.97
2018-12-18T08:27:57.885Z,12.60
2018-12-18T08:30:26.063Z,6.60
2018-12-18T08:32:53.858Z,8.43
2018-12-18T08:35:22.083Z,6.80
2018-12-18T08:37:52.249Z,8.03
2018-12-18T08:40:21.859Z,11.13
2018-12-18T08:42:51.577Z,12.10
2018-12-18T08:45:19.398Z,11.63
2018-12-18T08:47:47.831Z,11.12
2018-12-18T08:50:15.579Z,10.83
2018-12-18T08:52:45.797Z,9.25
2018-12-18T08:55:14.130Z,10.80
2018-12-18T08:57:41.861Z,5.43
2018-12-18T09:00:11.855Z,10.07
2018-12-18T09:02:40.194Z,7.87
2018-12-18T09:05:09.756Z,14.70
2018-12-18T09:07:41.198Z,8.03
2018-12-18T09:10:10.309Z,7.45
2018-12-18T09:12:39.464Z,8.43
2018-12-18T09:15:16.481Z,7.00
2018-12-18T09:17:46.658Z,7.07
2018-12-18T09:20:14.494Z,6.90
2018-12-18T09:22:42.421Z,6.00
2018-12-18T09:25:10.562Z,6.20
2018-12-18T09:27:45.271Z,6.43
2018-12-18T09:30:13.605Z,5.83
2018-12-18T09:32:42.041Z,6.30
2018-12-18T09:35:13.666Z,7.33
2018-12-18T09:37:42.755Z,7.87
2018-12-18T09:40:13.627Z,7.78
2018-12-18T09:42:47.514Z,5.83
2018-12-18T09:45:15.266Z,5.20
2018-12-18T09:47:44.479Z,6.50
2018-12-18T09:53:14.256Z,6.37
2018-12-18T09:55:44.855Z,6.03
2018-12-18T09:58:19.516Z,6.60
2018-12-18T10:00:51.530Z,5.60
2018-12-18T10:03:20.291Z,7.10
2018-12-18T10:05:56.127Z,6.57
2018-12-18T10:08:29.053Z,7.55
2018-12-18T10:11:00.458Z,9.17
2018-12-18T10:13:31.170Z,6.03
2018-12-18T10:15:58.973Z,6.97
2018-12-18T10:18:26.797Z,5.57
2018-12-18T10:20:55.416Z,5.63
2018-12-18T10:23:23.304Z,4.43
2018-12-18T10:25:52.201Z,7.67
2018-12-18T10:28:20.970Z,8.45
2018-12-18T10:30:53.013Z,8.63
2018-12-18T10:33:22.877Z,8.17
2018-12-18T10:35:51.202Z,7.83
2018-12-18T10:38:19.032Z,8.47
2018-12-18T10:40:46.820Z,9.03
2018-12-18T10:43:16.013Z,6.73
2018-12-18T10:45:44.365Z,8.43
2018-12-18T10:48:12.193Z,7.47
2018-12-18T10:50:40.148Z,7.37
2018-12-18T10:53:08.153Z,10.63
2018-12-18T10:55:36.507Z,8.63
2018-12-18T10:58:04.307Z,6.83
2018-12-18T11:00:39.890Z,9.53
2018-12-18T11:03:07.730Z,9.03
2018-12-18T11:05:35.784Z,8.87
2018-12-18T11:08:04.091Z,9.75
2018-12-18T11:10:31.875Z,6.80
2018-12-18T11:13:05.425Z,6.47
2018-12-18T11:15:33.318Z,8.60
2018-12-18T11:18:01.446Z,7.67
2018-12-18T11:20:37.022Z,5.87
2018-12-18T11:23:07.914Z,7.03
2018-12-18T11:25:39.301Z,6.60
2018-12-18T11:28:07.273Z,8.83
2018-12-18T11:30:35.312Z,8.43
2018-12-18T11:33:06.087Z,9.03
2018-12-18T11:35:35.338Z,9.77
2018-12-18T11:38:03.162Z,5.10
2018-12-18T11:41:06.804Z,6.85
2018-12-18T11:43:35.281Z,7.77
2018-12-18T11:49:11.249Z,6.43
2018-12-18T11:54:47.808Z,7.27
2018-12-18T12:00:29.911Z,7.20
2018-12-18T12:02:58.240Z,9.10
2018-12-18T12:05:54.828Z,8.77
2018-12-18T12:08:26.524Z,6.30
2018-12-18T12:11:00.895Z,11.47
2018-12-18T12:14:16.931Z,5.37
2018-12-18T12:16:57.455Z,5.57
2018-12-18T12:19:31.431Z,15.03
2018-12-18T12:28:21.341Z,4.73
2018-12-18T12:30:52.459Z,5.70
2018-12-18T12:36:29.781Z,6.43
2018-12-18T12:39:22.044Z,8.20
2018-12-18T12:41:55.309Z,6.13
2018-12-18T12:47:38.346Z,11.30
2018-12-18T12:53:15.091Z,5.80
2018-12-18T12:55:47.169Z,4.83
2018-12-18T12:58:56.828Z,8.88
2018-12-18T13:01:27.644Z,5.65
2018-12-18T13:04:34.733Z,4.20
2018-12-18T13:07:06.565Z,3.30
2018-12-18T13:10:09.440Z,7.00
2018-12-18T13:12:37.489Z,4.77
2018-12-18T13:15:06.714Z,4.72
2018-12-18T13:18:10.612Z,4.53
2018-12-18T13:20:38.811Z,4.63
2018-12-18T13:23:08.088Z,7.20
2018-12-18T13:28:43.828Z,7.10
2018-12-18T13:38:07.451Z,6.53
2018-12-18T13:40:37.263Z,8.80
2018-12-18T13:43:43.490Z,8.33
2018-12-18T13:46:15.059Z,8.73
2018-12-18T13:55:05.300Z,9.50
2018-12-18T13:57:34.481Z,7.17
2018-12-18T14:00:02.478Z,9.27
2018-12-18T14:05:38.994Z,4.63
2018-12-18T14:08:44.750Z,8.13
2018-12-18T14:11:13.464Z,7.17
2018-12-18T14:16:48.272Z,7.43
2018-12-18T14:19:45.024Z,6.35
2018-12-18T14:22:17.012Z,7.60
2018-12-18T14:24:44.924Z,6.37
2018-12-18T14:27:41.854Z,4.83
2018-12-18T14:30:10.258Z,8.97
2018-12-18T14:35:55.442Z,4.67
2018-12-18T14:38:23.501Z,10.43
2018-12-18T14:40:52.717Z,7.33
2018-12-18T14:43:20.725Z,5.70
2018-12-18T14:48:55.921Z,7.17
2018-12-18T14:54:31.174Z,5.80
2018-12-18T14:57:33.777Z,10.80
2018-12-18T15:00:02.396Z,7.33
2018-12-18T15:09:17.035Z,3.90
2018-12-18T15:11:44.872Z,9.73
2018-12-18T15:17:20.927Z,8.73
2018-12-18T15:26:16.504Z,7.67
2018-12-18T15:28:44.355Z,11.10
2018-12-18T15:31:12.690Z,8.50
2018-12-18T15:36:49.563Z,9.63
2018-12-18T15:42:24.571Z,8.07
2018-12-18T15:48:00.509Z,4.23
2018-12-18T15:50:54.880Z,4.70
2018-12-18T15:53:25.335Z,6.00
2018-12-18T15:55:53.847Z,6.93
2018-12-18T16:01:28.911Z,3.73
2018-12-18T16:04:27.410Z,5.07
2018-12-18T16:06:56.425Z,6.37
2018-12-18T16:12:33.654Z,6.13
2018-12-18T16:15:39.511Z,5.63
2018-12-18T16:18:07.261Z,9.13
2018-12-18T16:21:11.069Z,9.07
2018-12-18T16:23:39.626Z,5.17
2018-12-18T16:26:08.780Z,5.53
2018-12-18T16:31:43.833Z,9.43
2018-12-18T16:37:23.080Z,5.60
2018-12-18T16:40:22.927Z,7.07
2018-12-18T16:42:50.724Z,6.97
2018-12-18T16:48:25.821Z,3.73
2018-12-18T16:51:20.989Z,4.43
2018-12-18T16:53:50.128Z,6.93
2018-12-18T16:56:18.338Z,3.97
2018-12-18T16:59:10.881Z,8.00
2018-12-18T17:01:39.414Z,4.50
2018-12-18T17:16:37.254Z,6.90
2018-12-18T17:19:06.059Z,5.00
2018-12-18T17:21:35.159Z,5.63
2018-12-18T17:24:03.432Z,7.00
2018-12-18T17:26:34.523Z,5.53
2018-12-18T17:29:38.339Z,4.23
2018-12-18T17:32:07.586Z,6.80
2018-12-18T17:40:52.733Z,5.20
2018-12-18T17:43:22.045Z,5.53
2018-12-18T17:55:12.831Z,4.00
2018-12-18T18:00:48.271Z,7.70
2018-12-18T18:09:48.412Z,5.10
2018-12-18T18:12:17.259Z,4.87
2018-12-18T18:15:19.771Z,8.37
2018-12-18T18:17:48.245Z,7.73
2018-12-18T18:20:16.174Z,4.63
2018-12-18T18:22:44.418Z,5.30
2018-12-18T18:25:12.174Z,6.57
2018-12-18T18:30:47.864Z,7.07
2018-12-18T18:33:44.288Z,5.35
2018-12-18T18:36:13.794Z,6.53
2018-12-18T18:39:10.437Z,5.03
2018-12-18T18:41:40.607Z,3.83
2018-12-18T18:50:34.125Z,4.67
2018-12-18T18:53:02.270Z,5.60
2018-12-18T18:55:30.964Z,7.47
2018-12-18T18:58:29.476Z,4.83
2018-12-18T19:00:58.738Z,4.83
2018-12-18T19:04:02.122Z,5.77
2018-12-18T19:06:31.153Z,6.08
2018-12-18T19:12:05.934Z,5.45
2018-12-18T19:14:33.716Z,7.00
2018-12-18T19:17:02.120Z,6.83
2018-12-18T19:19:32.385Z,5.87
2018-12-18T19:25:09.487Z,5.13
2018-12-18T19:28:04.751Z,4.23
2018-12-18T19:30:33.321Z,4.10
2018-12-18T19:36:08.342Z,4.70
2018-12-18T19:38:36.250Z,4.87
2018-12-18T19:41:08.691Z,5.47
2018-12-18T19:43:36.740Z,3.50
2018-12-18T19:49:15.330Z,5.53
2018-12-18T19:54:50.600Z,9.93
2018-12-18T19:57:18.344Z,10.37
2018-12-18T20:00:12.809Z,7.17
2018-12-18T20:02:40.694Z,5.00
2018-12-18T20:05:09.213Z,5.00
2018-12-18T20:10:24.730Z,8.88
2018-12-18T20:12:53.237Z,4.35
2018-12-18T20:15:21.314Z,5.30
2018-12-18T20:17:49.697Z,5.67
2018-12-18T20:20:52.298Z,4.60
2018-12-18T20:23:21.397Z,7.13
2018-12-18T20:25:49.438Z,8.03
2018-12-18T20:28:24.514Z,5.87
2018-12-18T20:30:52.231Z,7.10
2018-12-18T20:33:21.360Z,4.27
2018-12-18T20:39:01.498Z,5.10
2018-12-18T20:41:29.249Z,7.33
2018-12-18T20:43:58.142Z,5.77
2018-12-18T20:46:25.886Z,5.20
2018-12-18T20:48:55.148Z,6.20
2018-12-18T20:51:57.798Z,5.93
2018-12-18T20:54:27.352Z,7.17
2018-12-18T20:56:55.118Z,7.53
2018-12-18T20:59:22.835Z,6.40
2018-12-18T21:01:53.201Z,6.50
2018-12-18T21:04:20.935Z,6.87
2018-12-18T21:07:12.805Z,8.57
2018-12-18T21:09:41.568Z,7.37
2018-12-18T21:12:10.898Z,6.57
2018-12-18T21:14:38.841Z,8.40
2018-12-18T21:17:41.452Z,5.30
2018-12-18T21:20:09.225Z,7.70
2018-12-18T21:26:00.625Z,9.23
2018-12-18T21:28:29.007Z,8.43
2018-12-18T21:34:04.527Z,8.10
2018-12-18T21:36:32.301Z,6.13
2018-12-18T21:42:07.789Z,5.37
2018-12-18T21:44:36.890Z,6.43
2018-12-18T21:47:33.134Z,7.67
2018-12-18T21:50:04.843Z,7.33
2018-12-18T21:52:32.746Z,6.43
2018-12-18T21:58:08.518Z,5.03
2018-12-18T22:00:36.363Z,5.57
2018-12-18T22:03:34.648Z,6.10
2018-12-18T22:06:02.501Z,5.23
2018-12-18T22:08:36.856Z,5.67
2018-12-18T22:11:09.258Z,7.10
2018-12-18T22:13:38.117Z,6.07
2018-12-18T22:19:20.596Z,6.60
2018-12-18T22:21:48.831Z,7.13
2018-12-18T22:24:17.705Z,8.00
2018-12-18T22:26:45.747Z,5.20
2018-12-18T22:29:16.023Z,4.10
2018-12-18T22:32:18.135Z,5.30
2018-12-18T22:34:45.879Z,4.77
2018-12-18T22:37:14.464Z,4.97
2018-12-18T22:40:17.534Z,6.93
2018-12-18T22:42:45.267Z,5.33
2018-12-18T22:45:12.995Z,5.00
2018-12-18T22:48:16.729Z,6.80
2018-12-18T22:50:45.226Z,4.83
2018-12-18T22:53:13.161Z,4.93
2018-12-18T22:56:08.191Z,4.67
2018-12-18T22:58:36.632Z,6.43
2018-12-18T23:01:06.650Z,4.80
2018-12-18T23:03:34.566Z,4.77
2018-12-18T23:06:02.347Z,5.63
2018-12-18T23:11:45.081Z,5.33
2018-12-18T23:14:12.796Z,6.10
2018-12-18T23:16:40.552Z,4.37
2018-12-18T23:19:09.425Z,4.03
2018-12-18T23:21:37.176Z,6.00
2018-12-18T23:24:18.993Z,4.77
2018-12-18T23:26:50.808Z,3.43
2018-12-18T23:29:18.991Z,6.03
2018-12-18T23:34:54.496Z,7.17
2018-12-18T23:37:22.190Z,5.73
2018-12-18T23:40:24.067Z,6.07
2018-12-18T23:42:51.818Z,3.23
2018-12-18T23:45:19.739Z,4.23
2018-12-18T23:48:25.497Z,4.80
2018-12-18T23:50:53.333Z,4.50
2018-12-18T23:53:21.076Z,5.23
2018-12-18T23:58:56.581Z,3.47
